首页
METAR-TAF:

METAR-TAF

机场 :

馬里伯爾愛德華·盧希揚機場

马里博尔, 斯洛文尼亚

纬度: 46-29N, 经度: 015-41E, 海拔: 264米

当前天气观测

该预报发布于22分钟前的16:00 UTC
风速12节,风向南转西南
温度 12°C
湿度 62%
气压 1017 hPa
能见度10公里或以上
1500米以下无云,无积雨云

METAR: LJMB 171600Z 21012KT CAVOK 12/05 Q1017

时间: 17:22 (16:22 UTC)

预报

该预报发布于2小时和22分钟前的14:00 UTC
预报有效从17日的 15点(UTC)到 18日的 15点(UTC)
风速10节,风向南转西南
能见度10公里或以上
1500米以下无云,无积雨云
短暂存在
从 17日的 15点(UTC)到 17日的 20点(UTC)
风速18节,风向南转西南,有时为30节阵风
成为
从 18日的 00点(UTC)到 18日的 03点(UTC)
风速5节,风向
成为
从 18日的 03点(UTC)到 18日的 06点(UTC)
散云层高于5000英尺
多云层高于7000英尺
短暂存在
从 18日的 06点(UTC)到 18日的 15点(UTC)
风速5节,风向南转南东

TAF: LJMB 171400Z 1715/1815 20010KT CAVOK TEMPO 1715/1720 20018G30KT BECMG 1800/1803 36005KT BECMG 1803/1806 SCT050 BKN070 TEMPO 1806/1815 15005KT

超过4000个机场的气象观测和天气预报(METAR&TAF报告)。

可查询的气象台以黄色和红色小点在地图上表示。

将鼠标移到小点上方,可查看气象台名称。

然后点击查看天气观测和预报。

如需切换地图:点击带黑十字的绿色按钮放大地图;点击带横线的绿色按钮缩小地图;或者点击绿色箭头查看邻近地区的地图。


METAR-TAF: